createdAt,value
2018-03-20T00:10:12.792Z,83.30
2018-03-20T00:15:17.162Z,83.30
2018-03-20T00:20:20.462Z,83.50
2018-03-20T00:25:23.726Z,83.30
2018-03-20T00:30:27.141Z,82.70
2018-03-20T00:35:30.403Z,82.70
2018-03-20T00:40:50.402Z,82.50
2018-03-20T00:45:54.125Z,82.80
2018-03-20T00:50:57.817Z,83.20
2018-03-20T00:56:01.150Z,83.20
2018-03-20T01:01:04.915Z,83.50
2018-03-20T01:06:08.191Z,83.50
2018-03-20T01:11:13.579Z,82.90
2018-03-20T01:16:16.936Z,82.90
2018-03-20T01:21:20.557Z,83.20
2018-03-20T01:31:59.226Z,83.20
2018-03-20T01:37:02.693Z,83.20
2018-03-20T01:42:05.927Z,82.90
2018-03-20T01:47:09.560Z,83.20
2018-03-20T01:57:42.375Z,83.10
2018-03-20T02:02:46.008Z,83.40
2018-03-20T02:07:49.624Z,83.40
2018-03-20T02:13:06.593Z,83.30
2018-03-20T02:18:09.931Z,82.80
2018-03-20T02:23:14.272Z,83.00
2018-03-20T02:33:52.701Z,83.20
2018-03-20T02:38:55.958Z,83.20
2018-03-20T02:43:59.216Z,83.00
2018-03-20T02:49:02.560Z,82.70
2018-03-20T02:54:07.721Z,82.40
2018-03-20T02:59:11.036Z,82.40
2018-03-20T03:04:14.305Z,82.80
2018-03-20T03:09:17.618Z,82.30
2018-03-20T03:14:20.928Z,82.50
2018-03-20T03:19:24.269Z,82.20
2018-03-20T03:24:27.541Z,82.20
2018-03-20T03:29:30.749Z,81.90
2018-03-20T03:34:33.994Z,82.30
2018-03-20T03:39:37.225Z,82.50
2018-03-20T03:44:40.693Z,82.10
2018-03-20T03:49:44.701Z,81.40
2018-03-20T03:54:48.512Z,81.40
2018-03-20T03:59:51.741Z,81.50
2018-03-20T04:10:30.970Z,81.50
2018-03-20T04:15:34.188Z,80.20
2018-03-20T04:20:37.512Z,80.00
2018-03-20T04:25:40.741Z,80.00
2018-03-20T04:30:44.001Z,80.40
2018-03-20T04:35:47.231Z,79.90
2018-03-20T04:40:50.446Z,78.90
2018-03-20T04:45:54.052Z,78.30
2018-03-20T04:50:57.268Z,78.30
2018-03-20T04:56:00.472Z,77.30
2018-03-20T05:01:04.176Z,76.90
2018-03-20T05:06:07.386Z,76.90
2018-03-20T05:11:10.608Z,75.80
2018-03-20T05:16:14.248Z,76.20
2018-03-20T05:21:17.479Z,76.20
2018-03-20T05:26:20.720Z,75.80
2018-03-20T05:31:23.995Z,75.60
2018-03-20T05:36:27.328Z,75.50
2018-03-20T05:41:30.557Z,76.00
2018-03-20T05:46:39.974Z,75.20
2018-03-20T05:51:49.012Z,75.20
2018-03-20T05:56:52.239Z,74.90
2018-03-20T06:01:55.872Z,74.50
2018-03-20T06:06:59.132Z,74.50
2018-03-20T06:12:02.358Z,74.80
2018-03-20T06:17:05.630Z,74.20
2018-03-20T06:22:08.845Z,74.50
2018-03-20T06:27:12.055Z,73.60
2018-03-20T06:32:15.783Z,73.70
2018-03-20T06:37:19.016Z,73.60
2018-03-20T06:42:22.717Z,73.10
2018-03-20T06:47:25.944Z,73.10
2018-03-20T06:52:29.223Z,73.50
2018-03-20T06:57:32.451Z,73.40
2018-03-20T07:02:36.065Z,72.70
2018-03-20T07:07:39.688Z,73.20
2018-03-20T07:12:43.332Z,73.00
2018-03-20T07:17:46.571Z,73.00
2018-03-20T07:22:49.815Z,72.40
2018-03-20T07:27:53.048Z,71.90
2018-03-20T07:32:56.612Z,71.50
2018-03-20T07:37:59.838Z,71.50
2018-03-20T07:43:03.079Z,71.40
2018-03-20T07:48:10.694Z,70.60
2018-03-20T07:53:13.912Z,70.50
2018-03-20T07:58:17.273Z,70.00
2018-03-20T08:03:20.562Z,70.50
2018-03-20T08:08:23.780Z,71.00
2018-03-20T08:13:27.470Z,70.60
2018-03-20T08:18:30.770Z,70.60
2018-03-20T08:23:37.875Z,70.30
2018-03-20T08:28:41.687Z,69.30
2018-03-20T08:33:44.898Z,68.30
2018-03-20T08:38:48.132Z,67.20
2018-03-20T08:43:51.825Z,66.70
2018-03-20T08:48:56.133Z,66.60
2018-03-20T08:53:59.935Z,65.70
2018-03-20T08:59:03.444Z,66.00
2018-03-20T09:04:06.905Z,66.10
2018-03-20T09:09:11.336Z,63.20
2018-03-20T09:19:49.115Z,64.50
2018-03-20T09:24:53.447Z,63.30
2018-03-20T09:29:57.031Z,63.90
2018-03-20T09:35:00.750Z,65.40
2018-03-20T09:40:04.371Z,63.10
2018-03-20T09:45:07.997Z,62.80
2018-03-20T09:50:12.197Z,63.10
2018-03-20T09:55:15.428Z,63.10
2018-03-20T10:00:19.035Z,62.90
2018-03-20T10:05:22.843Z,62.80
2018-03-20T10:10:26.456Z,62.00
2018-03-20T10:15:29.675Z,62.00
2018-03-20T10:20:33.290Z,64.20
2018-03-20T10:25:37.094Z,65.10
2018-03-20T10:30:40.402Z,65.10
2018-03-20T10:35:43.724Z,64.90
2018-03-20T10:40:47.428Z,64.20
2018-03-20T10:45:50.653Z,64.20
2018-03-20T10:50:54.453Z,64.10
2018-03-20T10:55:57.670Z,64.10
2018-03-20T11:01:06.186Z,63.10
2018-03-20T11:06:09.432Z,63.10
2018-03-20T11:11:12.668Z,63.80
2018-03-20T11:16:16.944Z,62.70
2018-03-20T11:21:20.560Z,61.10
2018-03-20T11:26:24.174Z,62.00
2018-03-20T11:31:27.790Z,61.90
2018-03-20T11:36:31.414Z,61.00
2018-03-20T11:41:34.637Z,61.00
2018-03-20T11:46:38.152Z,62.00
2018-03-20T11:51:41.719Z,62.10
2018-03-20T11:56:45.235Z,62.10
2018-03-20T12:01:48.972Z,61.80
2018-03-20T12:06:52.257Z,62.40
2018-03-20T12:11:55.494Z,63.00
2018-03-20T12:16:59.134Z,61.70
2018-03-20T12:22:02.522Z,59.90
2018-03-20T12:27:06.366Z,53.20
2018-03-20T12:32:10.171Z,54.10
2018-03-20T12:37:13.926Z,50.50
2018-03-20T12:42:17.149Z,52.00
2018-03-20T12:47:20.668Z,49.70
2018-03-20T12:52:24.482Z,50.20
2018-03-20T12:57:27.789Z,50.20
2018-03-20T13:02:31.011Z,53.30
2018-03-20T13:07:34.616Z,48.20
2018-03-20T13:12:38.225Z,46.90
2018-03-20T13:17:41.475Z,46.90
2018-03-20T13:22:44.696Z,46.20
2018-03-20T13:27:47.935Z,50.20
2018-03-20T13:32:51.164Z,54.30
2018-03-20T13:37:54.787Z,55.40
2018-03-20T13:42:58.424Z,56.40
2018-03-20T13:48:01.633Z,56.30
2018-03-20T13:53:05.671Z,56.60
2018-03-20T13:58:08.951Z,55.10
2018-03-20T14:03:12.292Z,56.00
2018-03-20T14:08:16.142Z,57.60
2018-03-20T14:13:19.356Z,57.40
2018-03-20T14:18:23.346Z,55.20
2018-03-20T14:23:26.681Z,55.20
2018-03-20T14:28:30.720Z,58.20
2018-03-20T14:33:34.808Z,56.10
2018-03-20T14:38:38.859Z,56.10
2018-03-20T14:43:42.904Z,57.70
2018-03-20T14:48:47.181Z,57.50
2018-03-20T14:53:50.413Z,57.50
2018-03-20T14:58:53.931Z,56.60
2018-03-20T15:03:57.205Z,55.70
2018-03-20T15:09:00.540Z,56.30
2018-03-20T15:14:04.493Z,58.20
2018-03-20T15:19:08.281Z,60.20
2018-03-20T15:24:11.484Z,60.80
2018-03-20T15:29:15.190Z,60.40
2018-03-20T15:34:18.534Z,60.50
2018-03-20T15:39:22.095Z,61.50
2018-03-20T15:44:25.443Z,62.10
2018-03-20T15:49:29.251Z,62.30
2018-03-20T15:54:32.523Z,63.60
2018-03-20T15:59:36.281Z,63.70
2018-03-20T16:04:40.424Z,64.10
2018-03-20T16:09:43.645Z,64.10
2018-03-20T16:14:46.879Z,64.30
2018-03-20T16:19:50.210Z,63.50
2018-03-20T16:24:54.458Z,63.50
2018-03-20T16:29:57.736Z,63.50
2018-03-20T16:35:01.344Z,62.30
2018-03-20T16:40:05.086Z,62.30
2018-03-20T16:45:08.702Z,62.40
2018-03-20T16:50:12.292Z,62.60
2018-03-20T16:55:15.909Z,63.30
2018-03-20T17:00:19.652Z,64.20
2018-03-20T17:05:23.111Z,66.20
2018-03-20T17:10:26.844Z,70.50
2018-03-20T17:15:30.230Z,73.50
2018-03-20T17:20:33.957Z,79.50
2018-03-20T17:25:37.914Z,83.90
2018-03-20T17:30:41.363Z,83.90
2018-03-20T17:35:45.094Z,87.80
2018-03-20T17:40:48.793Z,89.50
2018-03-20T17:45:52.499Z,90.20
2018-03-20T17:50:56.226Z,90.30
2018-03-20T17:55:59.897Z,91.50
2018-03-20T18:01:03.355Z,91.50
2018-03-20T18:06:06.736Z,91.50
2018-03-20T18:11:09.970Z,91.60
2018-03-20T18:16:13.196Z,91.80
2018-03-20T18:21:16.748Z,92.00
2018-03-20T18:26:20.252Z,92.10
2018-03-20T18:31:25.100Z,93.10
2018-03-20T18:36:32.287Z,93.10
2018-03-20T18:41:35.926Z,92.60
2018-03-20T18:46:39.484Z,92.60
2018-03-20T18:51:42.712Z,93.10
2018-03-20T18:56:47.105Z,93.30
2018-03-20T19:01:50.620Z,93.30
2018-03-20T19:06:54.362Z,93.70
2018-03-20T19:11:58.107Z,93.50
2018-03-20T19:17:02.008Z,93.50
2018-03-20T19:22:07.433Z,92.90
2018-03-20T19:27:11.186Z,93.30
2018-03-20T19:32:14.986Z,93.30
2018-03-20T19:37:19.257Z,92.90
2018-03-20T19:42:22.945Z,92.50
2018-03-20T19:47:26.286Z,91.90
2018-03-20T19:52:30.217Z,90.10
2018-03-20T19:57:34.036Z,90.70
2018-03-20T20:02:38.257Z,90.40
2018-03-20T20:07:42.270Z,88.50
2018-03-20T20:12:45.737Z,88.40
2018-03-20T20:17:49.431Z,89.10
2018-03-20T20:22:53.790Z,88.10
2018-03-20T20:27:57.123Z,88.20
2018-03-20T20:33:02.059Z,88.50
2018-03-20T20:38:05.556Z,89.10
2018-03-20T20:43:09.101Z,89.30
2018-03-20T20:48:12.791Z,87.50
2018-03-20T20:53:16.095Z,88.50
2018-03-20T20:58:20.809Z,89.90
2018-03-20T21:03:24.424Z,89.90
2018-03-20T21:08:28.016Z,90.20
2018-03-20T21:13:31.359Z,90.50
2018-03-20T21:18:35.050Z,90.30
2018-03-20T21:23:38.294Z,90.30
2018-03-20T21:28:42.810Z,90.50
2018-03-20T21:33:46.510Z,90.60
2018-03-20T21:38:50.305Z,89.70
2018-03-20T21:43:53.544Z,90.00
2018-03-20T21:48:56.962Z,90.80
2018-03-20T21:54:00.617Z,90.80
2018-03-20T21:59:04.135Z,91.30
2018-03-20T22:04:07.450Z,91.40
2018-03-20T22:09:12.308Z,91.30
2018-03-20T22:14:15.574Z,91.30
2018-03-20T22:19:18.804Z,91.00
2018-03-20T22:24:22.421Z,91.40
2018-03-20T22:29:25.766Z,91.40
2018-03-20T22:34:28.979Z,91.50
2018-03-20T22:39:32.316Z,90.90
2018-03-20T22:44:36.023Z,91.50
2018-03-20T22:49:39.782Z,90.20
2018-03-20T23:00:42.146Z,90.30
2018-03-20T23:05:45.476Z,90.30
2018-03-20T23:10:49.076Z,90.60
2018-03-20T23:15:52.890Z,91.30
2018-03-20T23:20:56.509Z,90.20
2018-03-20T23:26:00.112Z,90.20
2018-03-20T23:31:03.396Z,90.80
2018-03-20T23:36:06.648Z,91.50
2018-03-20T23:41:10.930Z,91.20
2018-03-20T23:46:14.250Z,91.10
2018-03-20T23:51:19.761Z,91.10
2018-03-20T23:56:23.240Z,91.10
